CheckWX is a tool to help pilots better visualize weather data.  It is not intended as a substitute for an official pre-flight weather briefing.

09:40:43 UTC

FNUE TAF
Luena Airport
Luena, Angola
TAF FNUE 192245Z 2000/2012 04005KT 9999 FEW025 PROB30 TEMPO 2008/2012 10008KT 7000 TSRA SCT013 BKN020 FEW030CB

Feb-20@
00:00 UTC

Feb-20 @ 00:00 UTC

Feb-20@
12:00 UTC

Feb-20 @ 12:00 UTC

TAF FNUE 192245Z 2000/2012 04005KT 9999 FEW025
Wind
  • 040° at 5 KTS
Visibility
10,000+ meters
Cloud Levels
  • Few at 2,500' AGL

Feb-20@
08:00 UTC

Feb-20 @ 08:00 UTC

Feb-20@
12:00 UTC

Feb-20 @ 12:00 UTC

PROB30 TEMPO 2008/2012 10008KT 7000 TSRA SCT013 BKN020 FEW030CB

Temporary - 30% Likelihood

Temporary - 30% Likelihood during this time.

Wind
  • 100° at 8 KTS
Visibility
7,001 meters
Conditions
Thunderstorm, Rain
Cloud Levels
  • Scattered at 1,300' AGL
  • Broken at 2,000' AGL
  • Few at 3,000' AGL